Thunder radar more information blitzortung!


Radar de pluja more information rain snow radar


Visita la nostra xarxa de llocs de meteo:

Template documentation
and downloads

And another site



No particular awareness of the weather is required.    There are no Weather-warnings

Pagina Historial Weather Underground text

Diari Resum May 6, 2017 Unitats:  Imperial    Mètric   Tant
« Previous Dia
SegĂźent Dia »
Diari Setmana Mensual Anual Personalitzada
  Maxima: Minima: Media:
Temperatura: 78.6 °F 52.9 °F 68.7 °F
Punt de rosada: 49.1 °F 33.8 °F 43.5 °F
Humitat: 69 % 22 % 43 %
Wind Speed: 16.1 mph 0 mph 6 mph
RĂ fegues de vent: 16.1 mph - -
Vent:- - SSW
Pression baro: 30.1 in 29.8 in -
Precipitacions: 0 in    
Historical Graphs
 
 
Dades de taula per May 6, 2017
Temps Temperatura Punt de rosada Pression baro Vent Wind Speed RĂ fegues de vent Humitat Rainfall Rate (Hourly)
00:04 60.8 °F 44.4 °F 29.8 in East 3.5 mph 3.5 mph 55 % 0 in
00:05 57 °F 45.9 °F 29.8 in WSW 3 mph 4 mph 66 % 0 in
00:15 57.7 °F 46.6 °F 29.8 in West 6 mph 11 mph 66 % 0 in
00:25 57.9 °F 46.2 °F 29.8 in WSW 3 mph 5 mph 65 % 0 in
00:35 57.9 °F 46.2 °F 29.8 in West 1 mph 5 mph 65 % 0 in
00:45 57.7 °F 46 °F 29.8 in West 2 mph 3 mph 65 % 0 in
00:55 57.7 °F 46 °F 29.8 in WSW 3 mph 4 mph 65 % 0 in
01:05 57.9 °F 46.6 °F 29.8 in WSW 1 mph 2 mph 66 % 0 in
01:15 58.1 °F 46.8 °F 29.8 in WSW 2 mph 4 mph 66 % 0 in
01:25 58.3 °F 47.5 °F 29.8 in WSW 2 mph 6 mph 67 % 0 in
01:35 58.5 °F 47.8 °F 29.8 in WSW 6 mph 7 mph 68 % 0 in
01:45 58.6 °F 48 °F 29.8 in WSW 2 mph 5 mph 68 % 0 in
01:55 58.3 °F 47.8 °F 29.8 in WSW 2 mph 3 mph 68 % 0 in
02:05 57.9 °F 47.5 °F 29.8 in WSW 2 mph 2 mph 68 % 0 in
02:15 57.7 °F 47.1 °F 29.8 in SW 2 mph 4 mph 68 % 0 in
02:25 58.3 °F 47.5 °F 29.8 in WSW 2 mph 4 mph 67 % 0 in
02:35 58.8 °F 47.5 °F 29.8 in West 3 mph 4 mph 66 % 0 in
02:45 59 °F 47.1 °F 29.8 in West 3 mph 9 mph 65 % 0 in
02:55 59.4 °F 47.7 °F 29.8 in West 5 mph 5 mph 65 % 0 in
03:05 59.4 °F 47.1 °F 29.8 in West 3 mph 8 mph 64 % 0 in
03:15 59.5 °F 47.3 °F 29.8 in West 3 mph 3 mph 64 % 0 in
03:25 59.9 °F 47.7 °F 29.8 in WSW 3 mph 4 mph 64 % 0 in
03:35 60.8 °F 48.6 °F 29.8 in WNW 2 mph 3 mph 64 % 0 in
03:45 60.8 °F 48 °F 29.8 in WNW 3 mph 8 mph 63 % 0 in
03:55 61.2 °F 48 °F 29.9 in West 5 mph 6 mph 62 % 0 in
04:05 62.2 °F 49.1 °F 29.9 in West 3 mph 4 mph 62 % 0 in
04:15 62.8 °F 49.1 °F 29.9 in WSW 3 mph 4 mph 61 % 0 in
04:25 63.3 °F 48.7 °F 29.9 in SW 3 mph 5 mph 59 % 0 in
04:35 62.8 °F 46.4 °F 29.9 in West 7 mph 7 mph 55 % 0 in
04:45 63.1 °F 46.2 °F 29.9 in West 3 mph 6 mph 54 % 0 in
04:55 63.1 °F 45.7 °F 29.9 in WSW 6 mph 7 mph 53 % 0 in
05:05 63.5 °F 45.7 °F 29.9 in WSW 6 mph 11 mph 52 % 0 in
05:15 64.4 °F 45.9 °F 29.9 in West 5 mph 11 mph 51 % 0 in
05:25 64.9 °F 45.9 °F 29.9 in West 6 mph 10 mph 50 % 0 in
05:35 65.8 °F 46.8 °F 29.9 in West 5 mph 8 mph 50 % 0 in
05:45 66.9 °F 47.1 °F 29.9 in West 3 mph 6 mph 49 % 0 in
05:55 67.6 °F 47.1 °F 29.9 in WSW 5 mph 6 mph 48 % 0 in
06:05 68.4 °F 47.3 °F 29.9 in West 2 mph 10 mph 47 % 0 in
11:10 68.2 °F 46 °F 29.9 in NW 5.9 mph 5.9 mph 45 % 0 in
11:15 68.2 °F 45.3 °F 29.9 in WSW 6.9 mph 6.9 mph 44 % 0 in
11:20 68.7 °F 45.9 °F 29.9 in WNW 5.8 mph 5.8 mph 44 % 0 in
11:25 68.9 °F 45.5 °F 29.9 in SSW 6.9 mph 6.9 mph 43 % 0 in
11:31 69.3 °F 45.1 °F 29.9 in WSW 5.8 mph 5.8 mph 42 % 0 in
11:36 69.6 °F 46 °F 29.9 in WSW 5.8 mph 5.8 mph 43 % 0 in
11:41 69.6 °F 45.5 °F 29.9 in West 5.8 mph 5.8 mph 42 % 0 in
11:46 70.7 °F 46.6 °F 29.9 in WNW 7.6 mph 7.6 mph 42 % 0 in
11:51 70.2 °F 45.3 °F 29.9 in SW 9.4 mph 9.4 mph 41 % 0 in
11:56 70.2 °F 44.8 °F 29.9 in SW 6.4 mph 6.4 mph 40 % 0 in
12:01 70.9 °F 46 °F 29.9 in ENE 4.6 mph 4.6 mph 41 % 0 in
12:06 70.7 °F 45.1 °F 29.9 in WSW 12.7 mph 12.7 mph 40 % 0 in
12:11 71.2 °F 45.7 °F 29.9 in NW 8.1 mph 8.1 mph 40 % 0 in
12:16 71.4 °F 45.9 °F 29.9 in SSW 6.9 mph 6.9 mph 40 % 0 in
12:21 71.2 °F 45.7 °F 29.9 in East 5.8 mph 5.8 mph 40 % 0 in
12:26 71.6 °F 46 °F 29.9 in NW 8.1 mph 8.1 mph 40 % 0 in
12:31 71.4 °F 45.1 °F 29.9 in WSW 6.9 mph 7.1 mph 39 % 0 in
12:36 71.4 °F 45.1 °F 29.9 in West 8.7 mph 8.7 mph 39 % 0 in
12:41 71.4 °F 45.1 °F 29.9 in West 8.1 mph 8.1 mph 39 % 0 in
12:46 71.8 °F 45.5 °F 29.9 in WNW 9.2 mph 9.2 mph 39 % 0 in
12:51 71.8 °F 45.5 °F 29.9 in West 9.2 mph 9.2 mph 39 % 0 in
12:56 71.8 °F 44.8 °F 29.9 in West 12.7 mph 12.7 mph 38 % 0 in
13:01 72 °F 45 °F 29.9 in WSW 8.5 mph 8.5 mph 38 % 0 in
13:06 72.3 °F 45.3 °F 29.9 in NNW 11.2 mph 11.2 mph 38 % 0 in
13:11 71.6 °F 43.2 °F 29.9 in WNW 8.1 mph 8.1 mph 36 % 0 in
13:16 71.8 °F 44.1 °F 29.9 in SW 10 mph 10 mph 37 % 0 in
13:21 72 °F 44.2 °F 29.9 in WSW 8.1 mph 8.1 mph 37 % 0 in
13:26 72.1 °F 44.4 °F 29.9 in WSW 10.4 mph 10.4 mph 37 % 0 in
13:31 72.5 °F 44.8 °F 29.9 in SW 6 mph 6 mph 37 % 0 in
13:36 73.4 °F 44.8 °F 29.9 in West 8.1 mph 8.1 mph 36 % 0 in
13:41 73.2 °F 45.3 °F 29.9 in SW 6.9 mph 6.9 mph 37 % 0 in
13:46 73.9 °F 45.3 °F 29.9 in West 5.8 mph 5.8 mph 36 % 0 in
13:51 74.1 °F 45.5 °F 29.9 in WNW 10.4 mph 10.4 mph 36 % 0 in
13:56 74.1 °F 44.8 °F 29.9 in WSW 9.2 mph 9.2 mph 35 % 0 in
14:01 74.3 °F 45 °F 29.9 in WSW 8.1 mph 8.1 mph 35 % 0 in
14:06 74.5 °F 45 °F 29.9 in South 8.1 mph 8.1 mph 35 % 0 in
14:11 74.7 °F 44.4 °F 29.9 in WSW 8.1 mph 8.1 mph 34 % 0 in
14:16 74.5 °F 44.2 °F 29.9 in WSW 9.8 mph 9.8 mph 34 % 0 in
14:21 75 °F 45.5 °F 29.9 in WNW 8.1 mph 8.1 mph 35 % 0 in
14:26 74.5 °F 43.5 °F 29.9 in WSW 12.7 mph 12.7 mph 33 % 0 in
14:31 75.6 °F 45.1 °F 29.9 in WSW 5.8 mph 5.8 mph 34 % 0 in
14:36 75.4 °F 44.2 °F 29.9 in West 8.1 mph 8.1 mph 33 % 0 in
14:41 74.8 °F 43.9 °F 29.9 in WSW 11.5 mph 11.5 mph 33 % 0 in
14:46 75.4 °F 43.5 °F 29.9 in WSW 10.4 mph 10.4 mph 32 % 0 in
14:51 75.9 °F 44.8 °F 29.9 in West 5.8 mph 5.8 mph 33 % 0 in
14:56 76.5 °F 44.4 °F 29.9 in WSW 10.4 mph 10.4 mph 32 % 0 in
15:01 76.3 °F 44.2 °F 29.9 in West 10.5 mph 10.5 mph 32 % 0 in
15:06 76.5 °F 44.4 °F 29.9 in WSW 10.5 mph 10.5 mph 32 % 0 in
15:11 75.9 °F 43.2 °F 29.9 in West 8.1 mph 8.1 mph 31 % 0 in
15:16 76.5 °F 44.4 °F 29.9 in WSW 9.2 mph 9.2 mph 32 % 0 in
15:21 76.6 °F 44.6 °F 29.9 in West 8.1 mph 8.1 mph 32 % 0 in
15:22 76.8 °F 44.8 °F 29.9 in WSW 8.1 mph 8.1 mph 32 % 0 in
15:27 76.6 °F 43.7 °F 29.9 in WSW 10.4 mph 10.4 mph 31 % 0 in
15:32 76.3 °F 42.6 °F 29.9 in WSW 8.1 mph 8.1 mph 30 % 0 in
15:37 76.3 °F 42.6 °F 29.9 in SW 6.9 mph 6.9 mph 30 % 0 in
15:42 76.8 °F 43.9 °F 29.9 in SW 6.9 mph 6.9 mph 31 % 0 in
15:47 77.7 °F 43.9 °F 29.9 in West 7.6 mph 7.6 mph 30 % 0 in
15:52 77.4 °F 42.6 °F 29.9 in WSW 8.1 mph 8.1 mph 29 % 0 in
15:57 77.2 °F 42.4 °F 29.9 in West 8.1 mph 8.1 mph 29 % 0 in
16:02 77.4 °F 42.6 °F 29.9 in WSW 6.9 mph 6.9 mph 29 % 0 in
16:07 78.3 °F 43.3 °F 29.9 in WSW 5.8 mph 5.8 mph 29 % 0 in
16:12 77.5 °F 42.8 °F 30 in West 8.1 mph 8.1 mph 29 % 0 in
16:14 77.5 °F 42.8 °F 30 in SW 5.8 mph 5.8 mph 29 % 0 in
16:19 78.1 °F 43.2 °F 30 in SW 9.2 mph 9.2 mph 29 % 0 in
16:24 77.7 °F 42.1 °F 30 in WSW 7.1 mph 7.1 mph 28 % 0 in
16:29 77.7 °F 42.1 °F 30 in SW 6.9 mph 6.9 mph 28 % 0 in
16:34 77.2 °F 41.5 °F 30 in West 16.1 mph 16.1 mph 28 % 0 in
16:39 77.5 °F 40.8 °F 30 in West 10.4 mph 10.4 mph 27 % 0 in
16:44 77.2 °F 40.6 °F 30 in WNW 6.9 mph 6.9 mph 27 % 0 in
16:49 76.8 °F 41.2 °F 30 in West 8.1 mph 8.1 mph 28 % 0 in
16:54 77.7 °F 41.2 °F 30 in WNW 3.5 mph 3.6 mph 27 % 0 in
16:59 78.1 °F 41.4 °F 30 in WSW 6.9 mph 6.9 mph 27 % 0 in
17:04 77.5 °F 39.9 °F 30 in SW 9.2 mph 9.2 mph 26 % 0 in
17:09 77.5 °F 39.9 °F 30 in West 6.9 mph 6.9 mph 26 % 0 in
17:14 78.1 °F 40.5 °F 30 in SSW 5.8 mph 5.8 mph 26 % 0 in
17:19 78.1 °F 39.4 °F 30 in WSW 11.5 mph 11.5 mph 25 % 0 in
17:24 78.1 °F 39.4 °F 30 in WSW 5.8 mph 5.8 mph 25 % 0 in
17:29 78.3 °F 40.5 °F 29.9 in SW 5.8 mph 5.8 mph 26 % 0 in
17:34 77.9 °F 39.2 °F 29.9 in WSW 5.8 mph 5.8 mph 25 % 0 in
17:39 78.6 °F 39.7 °F 29.9 in WSW 5.8 mph 5.8 mph 25 % 0 in
17:44 78.1 °F 38.3 °F 30 in West 9.2 mph 9.2 mph 24 % 0 in
17:50 77.9 °F 37 °F 30 in WSW 5 mph 12 mph 23 % 0 in
17:55 78.1 °F 38.3 °F 30 in WSW 3 mph 7 mph 24 % 0 in
18:00 78.1 °F 38.3 °F 30 in WNW 6.9 mph 6.9 mph 24 % 0 in
18:05 77.5 °F 36.9 °F 30 in WSW 11.5 mph 11.5 mph 23 % 0 in
18:10 77.2 °F 36.5 °F 30 in NNW 8.1 mph 8.1 mph 23 % 0 in
18:15 77.2 °F 36.5 °F 30 in West 6.9 mph 6.9 mph 23 % 0 in
18:20 77 °F 35.2 °F 30 in West 7 mph 10 mph 22 % 0 in
18:25 77.5 °F 36.9 °F 30 in NNW 4.6 mph 4.6 mph 23 % 0 in
18:30 77.4 °F 36.7 °F 30 in West 7.1 mph 7.1 mph 23 % 0 in
18:35 77.2 °F 36.5 °F 30 in West 10.4 mph 10.4 mph 23 % 0 in
18:40 76.8 °F 36.1 °F 30 in SW 4.6 mph 5.9 mph 23 % 0 in
18:45 77 °F 36.3 °F 30 in West 3.5 mph 3.5 mph 23 % 0 in
18:50 76.8 °F 38.3 °F 30 in NNW 5.9 mph 5.9 mph 25 % 0 in
18:55 76.6 °F 37 °F 30 in SW 9.2 mph 9.2 mph 24 % 0 in
19:00 76.1 °F 35.6 °F 30 in WSW 5 mph 10 mph 23 % 0 in
19:05 75.7 °F 34.2 °F 30 in SW 8.1 mph 8.1 mph 22 % 0 in
19:10 75.7 °F 35.2 °F 30 in SSW 5.8 mph 5.8 mph 23 % 0 in
19:15 75.6 °F 35.1 °F 30 in WSW 5.8 mph 5.8 mph 23 % 0 in
19:20 75.6 °F 35.1 °F 30 in West 5.8 mph 5.8 mph 23 % 0 in
19:25 75.4 °F 36 °F 30 in WSW 3 mph 7 mph 24 % 0 in
19:30 74.8 °F 35.6 °F 30 in West 6 mph 6 mph 24 % 0 in
19:35 74.5 °F 35.2 °F 30 in SW 4.6 mph 4.6 mph 24 % 0 in
19:40 74.5 °F 35.2 °F 30 in SW 5.8 mph 5.8 mph 24 % 0 in
19:45 73.9 °F 33.8 °F 30 in WSW 4.6 mph 4.6 mph 23 % 0 in
19:50 73.8 °F 34.7 °F 30 in West 2 mph 3 mph 24 % 0 in
19:55 73.6 °F 34.5 °F 30 in WSW 1 mph 3 mph 24 % 0 in
20:00 73.2 °F 34.3 °F 30 in SSW 1 mph 4 mph 24 % 0 in
20:05 69.6 °F 38.5 °F 30 in ESE 8 mph 12 mph 32 % 0 in
20:10 68.2 °F 39.6 °F 30 in ESE 5 mph 12 mph 35 % 0 in
20:15 67.3 °F 42.1 °F 30 in NNE 11.5 mph 11.5 mph 40 % 0 in
20:20 66.4 °F 43.2 °F 30 in NE 11.5 mph 11.5 mph 43 % 0 in
20:25 66 °F 44.6 °F 30 in ENE 12.7 mph 12.7 mph 46 % 0 in
20:30 65.7 °F 45 °F 30.1 in East 9.2 mph 9.2 mph 47 % 0 in
20:35 65.1 °F 45.5 °F 30.1 in East 8.1 mph 8.1 mph 49 % 0 in
20:40 64.8 °F 45.1 °F 30.1 in East 5 mph 12 mph 49 % 0 in
20:45 64.2 °F 45.1 °F 30.1 in ENE 5.8 mph 5.8 mph 50 % 0 in
20:50 64 °F 45 °F 30.1 in East 4.6 mph 4.6 mph 50 % 0 in
20:55 63.5 °F 45 °F 30.1 in ENE 7.6 mph 7.6 mph 51 % 0 in
21:00 63.3 °F 45 °F 30.1 in ENE 7 mph 11 mph 51 % 0 in
21:05 63 °F 44.4 °F 30.1 in East 5 mph 10 mph 51 % 0 in
21:10 62.8 °F 45 °F 30.1 in East 8.1 mph 8.1 mph 52 % 0 in
21:15 62.6 °F 44.8 °F 30.1 in NNE 8.1 mph 8.1 mph 52 % 0 in
21:20 62.4 °F 45.1 °F 30.1 in East 6.9 mph 6.9 mph 53 % 0 in
21:25 62.1 °F 45.1 °F 30.1 in ESE 5.8 mph 5.8 mph 54 % 0 in
21:30 61.9 °F 45 °F 30.1 in North 4.6 mph 4.6 mph 54 % 0 in
21:35 61.9 °F 45 °F 30.1 in NNE 3 mph 5 mph 54 % 0 in
21:40 61.7 °F 45 °F 30.1 in East 5.9 mph 5.9 mph 54 % 0 in
21:45 61.3 °F 44.4 °F 30.1 in NNE 7.6 mph 7.6 mph 54 % 0 in
21:50 61.3 °F 45 °F 30.1 in NE 5 mph 8 mph 55 % 0 in
21:55 61 °F 45.1 °F 30.1 in ENE 6 mph 6 mph 56 % 0 in
22:00 61 °F 45.1 °F 30.1 in ENE 3 mph 6 mph 56 % 0 in
22:05 60.8 °F 45 °F 30.1 in NNE 5.8 mph 5.8 mph 56 % 0 in
22:10 60.8 °F 45 °F 30.1 in ENE 4.7 mph 4.7 mph 56 % 0 in
22:15 60.8 °F 45.5 °F 30.1 in NE 5.8 mph 5.8 mph 57 % 0 in
22:20 60.6 °F 45.3 °F 30.1 in ENE 4.6 mph 4.6 mph 57 % 0 in
22:25 60.3 °F 45.3 °F 30.1 in ENE 5.8 mph 5.8 mph 58 % 0 in
22:30 60.3 °F 45.3 °F 30.1 in ENE 2 mph 6 mph 58 % 0 in
22:35 60.1 °F 45.1 °F 30.1 in NE 4.6 mph 4.6 mph 58 % 0 in
22:40 59.9 °F 45.5 °F 30.1 in NNE 3.5 mph 3.5 mph 59 % 0 in
22:45 59.7 °F 45.3 °F 30.1 in East 3.1 mph 3.1 mph 59 % 0 in
22:50 59.7 °F 45.3 °F 30.1 in ENE 2 mph 3 mph 59 % 0 in
22:55 59.7 °F 45.3 °F 30.1 in ENE 2 mph 5 mph 59 % 0 in
23:00 59.7 °F 45.3 °F 30.1 in SE 2.3 mph 2.3 mph 59 % 0 in
23:05 59.5 °F 45.1 °F 30.1 in East 1 mph 3 mph 59 % 0 in
23:10 59.5 °F 45.7 °F 30.1 in NE 3.5 mph 3.5 mph 60 % 0 in
23:15 59.4 °F 45.9 °F 30.1 in East 4.6 mph 4.6 mph 61 % 0 in
23:20 59.4 °F 46.2 °F 30.1 in ESE 2.6 mph 2.6 mph 62 % 0 in
23:25 59.2 °F 45.7 °F 30.1 in East 3.5 mph 3.5 mph 61 % 0 in
23:30 59 °F 45.7 °F 30.1 in East 2.4 mph 2.4 mph 61 % 0 in
23:35 53.2 °F 43 °F 30.1 in North 1 mph 2 mph 68 % 0 in
23:36 58.8 °F 45.3 °F 30.1 in NNE 2.3 mph 2.3 mph 61 % 0 in
23:41 58.6 °F 45.1 °F 30.1 in ENE 2.9 mph 2.9 mph 61 % 0 in
23:45 53.1 °F 42.8 °F 30.1 in Calm   1 mph 68 % 0 in
23:46 58.6 °F 45.1 °F 30.1 in ENE 4.6 mph 4.6 mph 61 % 0 in
23:51 58.6 °F 45.1 °F 30.1 in ENE 2.3 mph 2.3 mph 61 % 0 in
23:55 52.9 °F 43 °F 30.1 in Calm   1 mph 69 % 0 in
23:56 58.6 °F 45.7 °F 30.1 in NE 3.5 mph 3.5 mph 62 % 0 in
Meteo Sesrovires
Elogis d' Weather Underground - 3.5 mb

Guio original per  Jim McMurry - jmcmurry@mwt.net Adaptat per a la plantilla per  Wim van der Kuil - Leuven-Template.eu

Trobareu la nostra informacio del temps tambe a:

Weather Underground

AWEKAS